Aérodrome :
LOGIN :

S'inscrire | Disclaimer

   EN    FR    IT 

 










Légende :    VFR   VFR Marginal   IFR   IFR Intensif   IFR Très Intensif
Visi : 
Plafond : 
>= 8 km
>= 3000ft
5 à 8 km
1000 à 3000 ft
1500m à 5 km
500 à 1000 ft
800 à 1500m
200 à 500 ft
< 800m
< 200 ft
Symboles :   Orages  Brouillard  Fortes neiges  Fortes précipitations  Vent > 20 kt
SIGMETs :   Divers  Orages  Givrage  Turbulence  Onde Orograph.  Cendres Volcan.






- Altitude de l'aérodrome : 978 ft
- Code IATA : LNZ


LOWL - Linz

DERNIER METAR :
  • 260350Z 27004KT 9999 FEW016 SCT060 10/08 Q1031 NOSIG

METARs EXPIRÉS :
  • 260320Z 28003KT 9999 FEW036 SCT060 BKN080 10/08 Q1031 NOSIG
  • 260250Z AUTO 27005KT 9999 FEW036 SCT080 10/08 Q1031
  • 260220Z AUTO 27004KT 220V290 9999 FEW036 SCT040 BKN050 10/08 Q1031
  • 260150Z AUTO 27005KT 9999 FEW032 SCT038 BKN044 10/08 Q1031

TAF TAF LOWL
Valide du 26 à 00h jusqu'au 27 à 00h UTC


252315Z 2600/2624 27005KT 9999 SCT030 SCT070 TX15/2612Z TN10/2624Z
TEMPO 2609/2617 29015G25KT SHRA SCT025CB BKN030
PROB30
TEMPO 2612/2616 31020G30KT 2000 TSRA



MET'MAP, la Météo Aéronautique d'un coup d'oeil ! - Copyright ORBIFLY Décembre 2007 - Disclaimer

ORBIFLY MET'MAP TEAM :

Programmation & Développement : Alexandra Zaïnal
Sur une idée originale de : Baudouin d'Aumeries
Assistance à la programmation : Marc-Olivier Méhu
Soutien technique & logistique : Manuel Goepfert

Contact : metmap@orbifly.com




SOURCES & CREDITS :

   NOAA